sensor_id;sensor_type;location;lat;lon;timestamp;temperature;humidity
74368;DHT22;64991;41.090;-8.118;2023-08-31T00:01:48;26.50;72.20
74368;DHT22;64991;41.090;-8.118;2023-08-31T00:06:53;26.50;72.20
74368;DHT22;64991;41.090;-8.118;2023-08-31T00:11:58;26.60;72.20
74368;DHT22;64991;41.090;-8.118;2023-08-31T00:17:04;26.60;72.10
74368;DHT22;64991;41.090;-8.118;2023-08-31T00:22:09;26.50;72.00
74368;DHT22;64991;41.090;-8.118;2023-08-31T00:27:13;26.50;72.00
74368;DHT22;64991;41.090;-8.118;2023-08-31T00:32:17;26.60;72.00
74368;DHT22;64991;41.090;-8.118;2023-08-31T00:37:24;26.60;71.80
74368;DHT22;64991;41.090;-8.118;2023-08-31T00:42:27;26.50;71.90
74368;DHT22;64991;41.090;-8.118;2023-08-31T00:47:32;26.60;71.90
74368;DHT22;64991;41.090;-8.118;2023-08-31T00:52:36;26.60;71.90
74368;DHT22;64991;41.090;-8.118;2023-08-31T00:57:40;26.60;71.80
74368;DHT22;64991;41.090;-8.118;2023-08-31T01:02:47;26.50;71.90
74368;DHT22;64991;41.090;-8.118;2023-08-31T01:07:57;26.50;71.80
74368;DHT22;64991;41.090;-8.118;2023-08-31T01:13:02;26.50;71.80
74368;DHT22;64991;41.090;-8.118;2023-08-31T01:18:14;26.50;71.80
74368;DHT22;64991;41.090;-8.118;2023-08-31T01:23:20;26.60;71.50
74368;DHT22;64991;41.090;-8.118;2023-08-31T01:28:30;26.50;71.70
74368;DHT22;64991;41.090;-8.118;2023-08-31T01:33:33;26.50;71.60
74368;DHT22;64991;41.090;-8.118;2023-08-31T01:38:37;26.60;71.80
74368;DHT22;64991;41.090;-8.118;2023-08-31T01:43:45;26.50;71.60
74368;DHT22;64991;41.090;-8.118;2023-08-31T01:48:50;26.50;71.60
74368;DHT22;64991;41.090;-8.118;2023-08-31T01:53:53;26.50;71.60
74368;DHT22;64991;41.090;-8.118;2023-08-31T01:58:58;26.50;71.60
74368;DHT22;64991;41.090;-8.118;2023-08-31T02:04:02;26.50;71.60
74368;DHT22;64991;41.090;-8.118;2023-08-31T02:09:06;26.40;71.60
74368;DHT22;64991;41.090;-8.118;2023-08-31T02:14:11;26.40;71.60
74368;DHT22;64991;41.090;-8.118;2023-08-31T02:19:14;26.50;71.60
74368;DHT22;64991;41.090;-8.118;2023-08-31T02:24:18;26.50;71.60
74368;DHT22;64991;41.090;-8.118;2023-08-31T02:29:24;26.60;71.70
74368;DHT22;64991;41.090;-8.118;2023-08-31T02:34:28;26.50;71.60
74368;DHT22;64991;41.090;-8.118;2023-08-31T02:39:31;26.40;71.60
74368;DHT22;64991;41.090;-8.118;2023-08-31T02:44:36;26.50;71.40
74368;DHT22;64991;41.090;-8.118;2023-08-31T02:49:40;26.50;71.70
74368;DHT22;64991;41.090;-8.118;2023-08-31T02:54:43;26.60;71.40
74368;DHT22;64991;41.090;-8.118;2023-08-31T02:59:50;26.40;71.30
74368;DHT22;64991;41.090;-8.118;2023-08-31T03:04:55;26.50;71.50
74368;DHT22;64991;41.090;-8.118;2023-08-31T03:09:58;26.50;71.10
74368;DHT22;64991;41.090;-8.118;2023-08-31T03:15:04;26.40;71.10
74368;DHT22;64991;41.090;-8.118;2023-08-31T03:20:09;26.40;71.20
74368;DHT22;64991;41.090;-8.118;2023-08-31T03:25:14;26.40;71.20
74368;DHT22;64991;41.090;-8.118;2023-08-31T03:30:18;26.50;71.20
74368;DHT22;64991;41.090;-8.118;2023-08-31T03:35:22;26.40;71.30
74368;DHT22;64991;41.090;-8.118;2023-08-31T03:40:28;26.50;71.20
74368;DHT22;64991;41.090;-8.118;2023-08-31T03:45:33;26.40;71.10
74368;DHT22;64991;41.090;-8.118;2023-08-31T03:50:37;26.40;71.10
74368;DHT22;64991;41.090;-8.118;2023-08-31T03:55:40;26.40;71.20
74368;DHT22;64991;41.090;-8.118;2023-08-31T04:00:48;26.40;71.20
74368;DHT22;64991;41.090;-8.118;2023-08-31T04:05:55;26.40;71.20
74368;DHT22;64991;41.090;-8.118;2023-08-31T04:10:59;26.40;71.10
74368;DHT22;64991;41.090;-8.118;2023-08-31T04:16:05;26.40;72.10
74368;DHT22;64991;41.090;-8.118;2023-08-31T04:21:08;26.40;71.00
74368;DHT22;64991;41.090;-8.118;2023-08-31T04:26:12;26.40;70.90
74368;DHT22;64991;41.090;-8.118;2023-08-31T04:31:18;26.40;70.70
74368;DHT22;64991;41.090;-8.118;2023-08-31T04:36:21;26.40;71.00
74368;DHT22;64991;41.090;-8.118;2023-08-31T04:41:25;26.40;71.00
74368;DHT22;64991;41.090;-8.118;2023-08-31T04:46:30;26.40;70.80
74368;DHT22;64991;41.090;-8.118;2023-08-31T04:51:34;26.30;72.10
74368;DHT22;64991;41.090;-8.118;2023-08-31T04:56:40;26.40;71.10
74368;DHT22;64991;41.090;-8.118;2023-08-31T05:01:44;26.40;71.10
74368;DHT22;64991;41.090;-8.118;2023-08-31T05:06:48;26.40;71.00
74368;DHT22;64991;41.090;-8.118;2023-08-31T05:11:51;26.40;71.80
74368;DHT22;64991;41.090;-8.118;2023-08-31T05:16:56;26.40;71.00
74368;DHT22;64991;41.090;-8.118;2023-08-31T05:22:00;26.40;71.00
74368;DHT22;64991;41.090;-8.118;2023-08-31T05:27:04;26.40;72.00
74368;DHT22;64991;41.090;-8.118;2023-08-31T05:32:09;26.40;71.00
74368;DHT22;64991;41.090;-8.118;2023-08-31T05:37:12;26.30;71.90
74368;DHT22;64991;41.090;-8.118;2023-08-31T05:42:16;26.30;72.10
74368;DHT22;64991;41.090;-8.118;2023-08-31T05:47:21;26.40;71.10
74368;DHT22;64991;41.090;-8.118;2023-08-31T05:52:24;26.30;72.10
74368;DHT22;64991;41.090;-8.118;2023-08-31T05:57:28;26.30;71.70
74368;DHT22;64991;41.090;-8.118;2023-08-31T06:02:33;26.30;71.70
74368;DHT22;64991;41.090;-8.118;2023-08-31T06:07:37;26.30;71.80
74368;DHT22;64991;41.090;-8.118;2023-08-31T06:12:41;26.30;71.90
74368;DHT22;64991;41.090;-8.118;2023-08-31T06:17:46;26.30;71.70
74368;DHT22;64991;41.090;-8.118;2023-08-31T06:22:50;26.40;71.90
74368;DHT22;64991;41.090;-8.118;2023-08-31T06:27:53;26.30;71.80
74368;DHT22;64991;41.090;-8.118;2023-08-31T06:32:58;26.30;71.80
74368;DHT22;64991;41.090;-8.118;2023-08-31T06:38:01;26.30;71.50
74368;DHT22;64991;41.090;-8.118;2023-08-31T06:43:05;26.30;71.40
74368;DHT22;64991;41.090;-8.118;2023-08-31T06:48:10;26.40;70.20
74368;DHT22;64991;41.090;-8.118;2023-08-31T06:53:13;26.30;71.10
74368;DHT22;64991;41.090;-8.118;2023-08-31T06:58:17;26.40;70.10
74368;DHT22;64991;41.090;-8.118;2023-08-31T07:03:22;26.30;70.90
74368;DHT22;64991;41.090;-8.118;2023-08-31T07:08:28;26.30;71.00
74368;DHT22;64991;41.090;-8.118;2023-08-31T07:13:32;26.30;71.00
74368;DHT22;64991;41.090;-8.118;2023-08-31T07:18:37;26.30;70.80
74368;DHT22;64991;41.090;-8.118;2023-08-31T07:23:41;26.30;71.00
74368;DHT22;64991;41.090;-8.118;2023-08-31T07:28:44;26.30;71.10
74368;DHT22;64991;41.090;-8.118;2023-08-31T07:33:49;26.30;70.90
74368;DHT22;64991;41.090;-8.118;2023-08-31T07:38:53;26.30;70.70
74368;DHT22;64991;41.090;-8.118;2023-08-31T07:43:56;26.30;71.00
74368;DHT22;64991;41.090;-8.118;2023-08-31T07:49:07;26.30;70.80
74368;DHT22;64991;41.090;-8.118;2023-08-31T07:54:10;26.30;70.80
74368;DHT22;64991;41.090;-8.118;2023-08-31T07:59:14;26.20;70.80
74368;DHT22;64991;41.090;-8.118;2023-08-31T08:04:19;26.30;70.70
74368;DHT22;64991;41.090;-8.118;2023-08-31T08:09:22;26.30;71.10
74368;DHT22;64991;41.090;-8.118;2023-08-31T08:14:26;26.40;69.80
74368;DHT22;64991;41.090;-8.118;2023-08-31T08:19:31;26.30;71.00
74368;DHT22;64991;41.090;-8.118;2023-08-31T08:24:34;26.30;71.20
74368;DHT22;64991;41.090;-8.118;2023-08-31T08:29:38;26.40;70.20
74368;DHT22;64991;41.090;-8.118;2023-08-31T08:34:42;26.40;70.10
74368;DHT22;64991;41.090;-8.118;2023-08-31T08:39:48;26.40;70.30
74368;DHT22;64991;41.090;-8.118;2023-08-31T08:44:54;26.50;70.40
74368;DHT22;64991;41.090;-8.118;2023-08-31T08:50:01;26.30;71.40
74368;DHT22;64991;41.090;-8.118;2023-08-31T08:55:05;26.30;71.70
74368;DHT22;64991;41.090;-8.118;2023-08-31T09:00:09;26.30;71.50
74368;DHT22;64991;41.090;-8.118;2023-08-31T09:05:15;26.40;70.40
74368;DHT22;64991;41.090;-8.118;2023-08-31T09:10:19;26.40;70.40
74368;DHT22;64991;41.090;-8.118;2023-08-31T09:15:24;26.50;70.60
74368;DHT22;64991;41.090;-8.118;2023-08-31T09:20:30;26.40;70.30
74368;DHT22;64991;41.090;-8.118;2023-08-31T09:25:35;26.40;70.20
74368;DHT22;64991;41.090;-8.118;2023-08-31T09:30:44;26.40;70.40
74368;DHT22;64991;41.090;-8.118;2023-08-31T09:35:51;26.40;70.20
74368;DHT22;64991;41.090;-8.118;2023-08-31T09:41:03;26.40;70.20
74368;DHT22;64991;41.090;-8.118;2023-08-31T09:46:07;26.40;70.10
74368;DHT22;64991;41.090;-8.118;2023-08-31T09:51:14;26.40;70.10
74368;DHT22;64991;41.090;-8.118;2023-08-31T09:56:20;26.40;70.30
74368;DHT22;64991;41.090;-8.118;2023-08-31T10:01:26;26.40;70.50
74368;DHT22;64991;41.090;-8.118;2023-08-31T10:06:32;26.40;70.40
74368;DHT22;64991;41.090;-8.118;2023-08-31T10:11:35;26.40;70.20
74368;DHT22;64991;41.090;-8.118;2023-08-31T10:16:40;26.40;70.20
74368;DHT22;64991;41.090;-8.118;2023-08-31T10:21:48;26.40;70.00
74368;DHT22;64991;41.090;-8.118;2023-08-31T10:26:52;26.50;70.00
74368;DHT22;64991;41.090;-8.118;2023-08-31T10:31:58;26.40;69.80
74368;DHT22;64991;41.090;-8.118;2023-08-31T10:37:07;26.60;70.10
74368;DHT22;64991;41.090;-8.118;2023-08-31T10:42:23;26.50;70.00
74368;DHT22;64991;41.090;-8.118;2023-08-31T10:47:36;26.50;70.20
74368;DHT22;64991;41.090;-8.118;2023-08-31T10:52:44;26.50;70.20
74368;DHT22;64991;41.090;-8.118;2023-08-31T10:57:49;26.50;70.40
74368;DHT22;64991;41.090;-8.118;2023-08-31T11:02:52;26.50;70.50
74368;DHT22;64991;41.090;-8.118;2023-08-31T11:08:00;26.60;70.50
74368;DHT22;64991;41.090;-8.118;2023-08-31T11:13:05;26.60;70.60
74368;DHT22;64991;41.090;-8.118;2023-08-31T11:18:08;26.50;70.60
74368;DHT22;64991;41.090;-8.118;2023-08-31T11:23:13;26.50;69.90
74368;DHT22;64991;41.090;-8.118;2023-08-31T11:28:17;26.50;70.50
74368;DHT22;64991;41.090;-8.118;2023-08-31T11:33:21;26.60;70.50
74368;DHT22;64991;41.090;-8.118;2023-08-31T11:38:26;26.50;70.80
74368;DHT22;64991;41.090;-8.118;2023-08-31T11:43:30;26.50;70.90
74368;DHT22;64991;41.090;-8.118;2023-08-31T11:48:33;26.50;71.00
74368;DHT22;64991;41.090;-8.118;2023-08-31T11:53:39;26.50;70.90
74368;DHT22;64991;41.090;-8.118;2023-08-31T11:58:42;26.50;71.00
74368;DHT22;64991;41.090;-8.118;2023-08-31T12:04:09;26.50;71.20
74368;DHT22;64991;41.090;-8.118;2023-08-31T12:09:15;26.60;71.00
74368;DHT22;64991;41.090;-8.118;2023-08-31T12:14:20;26.60;70.90
74368;DHT22;64991;41.090;-8.118;2023-08-31T12:19:26;26.60;71.10
74368;DHT22;64991;41.090;-8.118;2023-08-31T12:24:36;26.60;70.80
74368;DHT22;64991;41.090;-8.118;2023-08-31T12:29:40;26.50;71.00
74368;DHT22;64991;41.090;-8.118;2023-08-31T12:34:44;26.60;71.10
74368;DHT22;64991;41.090;-8.118;2023-08-31T12:39:49;26.50;71.20
74368;DHT22;64991;41.090;-8.118;2023-08-31T12:44:53;26.50;69.20
74368;DHT22;64991;41.090;-8.118;2023-08-31T12:49:56;26.60;69.10
74368;DHT22;64991;41.090;-8.118;2023-08-31T12:55:01;26.60;69.60
74368;DHT22;64991;41.090;-8.118;2023-08-31T13:00:07;26.60;69.70
74368;DHT22;64991;41.090;-8.118;2023-08-31T13:05:13;26.50;69.20
74368;DHT22;64991;41.090;-8.118;2023-08-31T13:10:18;26.60;69.00
74368;DHT22;64991;41.090;-8.118;2023-08-31T13:15:22;26.60;68.80
74368;DHT22;64991;41.090;-8.118;2023-08-31T13:20:26;26.70;69.60
74368;DHT22;64991;41.090;-8.118;2023-08-31T13:25:31;26.60;69.10
74368;DHT22;64991;41.090;-8.118;2023-08-31T13:30:35;26.60;68.80
74368;DHT22;64991;41.090;-8.118;2023-08-31T13:35:38;26.60;69.30
74368;DHT22;64991;41.090;-8.118;2023-08-31T13:40:43;26.70;69.30
74368;DHT22;64991;41.090;-8.118;2023-08-31T13:45:46;26.60;69.40
74368;DHT22;64991;41.090;-8.118;2023-08-31T13:50:50;26.60;69.50
74368;DHT22;64991;41.090;-8.118;2023-08-31T13:55:56;26.70;70.10
74368;DHT22;64991;41.090;-8.118;2023-08-31T14:01:00;26.70;69.70
74368;DHT22;64991;41.090;-8.118;2023-08-31T14:06:05;26.70;69.70
74368;DHT22;64991;41.090;-8.118;2023-08-31T14:11:14;26.60;70.30
74368;DHT22;64991;41.090;-8.118;2023-08-31T14:16:17;26.70;70.90
74368;DHT22;64991;41.090;-8.118;2023-08-31T14:21:21;26.60;71.00
74368;DHT22;64991;41.090;-8.118;2023-08-31T14:26:26;26.70;71.20
74368;DHT22;64991;41.090;-8.118;2023-08-31T14:31:29;26.60;71.30
74368;DHT22;64991;41.090;-8.118;2023-08-31T14:36:33;26.60;71.30
74368;DHT22;64991;41.090;-8.118;2023-08-31T14:41:38;26.70;71.30
74368;DHT22;64991;41.090;-8.118;2023-08-31T14:46:41;26.70;71.30
74368;DHT22;64991;41.090;-8.118;2023-08-31T14:51:45;26.60;71.40
74368;DHT22;64991;41.090;-8.118;2023-08-31T14:56:50;26.70;71.30
74368;DHT22;64991;41.090;-8.118;2023-08-31T15:01:53;26.60;71.50
74368;DHT22;64991;41.090;-8.118;2023-08-31T15:06:57;26.70;71.40
74368;DHT22;64991;41.090;-8.118;2023-08-31T15:12:03;26.60;71.40
74368;DHT22;64991;41.090;-8.118;2023-08-31T15:17:07;26.60;71.40
74368;DHT22;64991;41.090;-8.118;2023-08-31T15:22:10;26.60;71.30
74368;DHT22;64991;41.090;-8.118;2023-08-31T15:27:16;26.60;71.40
74368;DHT22;64991;41.090;-8.118;2023-08-31T15:32:19;26.60;71.40
74368;DHT22;64991;41.090;-8.118;2023-08-31T15:37:23;26.70;71.60
74368;DHT22;64991;41.090;-8.118;2023-08-31T15:42:27;26.60;71.30
74368;DHT22;64991;41.090;-8.118;2023-08-31T15:47:31;26.70;71.60
74368;DHT22;64991;41.090;-8.118;2023-08-31T15:52:34;26.70;71.50
74368;DHT22;64991;41.090;-8.118;2023-08-31T15:57:39;26.60;71.70
74368;DHT22;64991;41.090;-8.118;2023-08-31T16:02:43;26.70;71.50
74368;DHT22;64991;41.090;-8.118;2023-08-31T16:07:46;26.60;71.50
74368;DHT22;64991;41.090;-8.118;2023-08-31T16:12:51;26.70;71.70
74368;DHT22;64991;41.090;-8.118;2023-08-31T16:17:55;26.60;71.60
74368;DHT22;64991;41.090;-8.118;2023-08-31T16:22:58;26.60;71.70
74368;DHT22;64991;41.090;-8.118;2023-08-31T16:28:04;26.60;71.70
74368;DHT22;64991;41.090;-8.118;2023-08-31T16:33:07;26.50;71.70
74368;DHT22;64991;41.090;-8.118;2023-08-31T16:38:12;26.60;71.90
74368;DHT22;64991;41.090;-8.118;2023-08-31T16:43:17;26.60;71.70
74368;DHT22;64991;41.090;-8.118;2023-08-31T16:48:21;26.70;71.60
74368;DHT22;64991;41.090;-8.118;2023-08-31T16:53:24;26.60;71.50
74368;DHT22;64991;41.090;-8.118;2023-08-31T16:58:30;26.60;71.50
74368;DHT22;64991;41.090;-8.118;2023-08-31T17:03:33;26.60;71.60
74368;DHT22;64991;41.090;-8.118;2023-08-31T17:08:37;26.60;71.50
74368;DHT22;64991;41.090;-8.118;2023-08-31T17:13:42;26.60;71.80
74368;DHT22;64991;41.090;-8.118;2023-08-31T17:18:45;26.60;71.60
74368;DHT22;64991;41.090;-8.118;2023-08-31T17:23:49;26.70;71.50
74368;DHT22;64991;41.090;-8.118;2023-08-31T17:28:54;26.60;71.40
74368;DHT22;64991;41.090;-8.118;2023-08-31T17:33:57;26.70;71.50
74368;DHT22;64991;41.090;-8.118;2023-08-31T17:39:01;26.70;71.60
74368;DHT22;64991;41.090;-8.118;2023-08-31T17:44:07;26.60;71.50
74368;DHT22;64991;41.090;-8.118;2023-08-31T17:49:11;26.70;71.40
74368;DHT22;64991;41.090;-8.118;2023-08-31T17:54:14;26.70;71.30
74368;DHT22;64991;41.090;-8.118;2023-08-31T17:59:19;26.70;71.50
74368;DHT22;64991;41.090;-8.118;2023-08-31T18:04:24;26.60;71.40
74368;DHT22;64991;41.090;-8.118;2023-08-31T18:09:27;26.70;71.30
74368;DHT22;64991;41.090;-8.118;2023-08-31T18:14:40;26.70;71.30
74368;DHT22;64991;41.090;-8.118;2023-08-31T18:19:46;26.60;71.60
74368;DHT22;64991;41.090;-8.118;2023-08-31T18:24:49;26.70;71.30
74368;DHT22;64991;41.090;-8.118;2023-08-31T18:29:54;26.60;71.40
74368;DHT22;64991;41.090;-8.118;2023-08-31T18:34:58;26.70;71.60
74368;DHT22;64991;41.090;-8.118;2023-08-31T18:40:01;26.70;71.50
74368;DHT22;64991;41.090;-8.118;2023-08-31T18:45:08;26.60;71.50
74368;DHT22;64991;41.090;-8.118;2023-08-31T18:50:15;26.60;71.40
74368;DHT22;64991;41.090;-8.118;2023-08-31T18:55:22;26.70;71.50
74368;DHT22;64991;41.090;-8.118;2023-08-31T19:00:27;26.70;71.40
74368;DHT22;64991;41.090;-8.118;2023-08-31T19:05:31;26.70;71.30
74368;DHT22;64991;41.090;-8.118;2023-08-31T19:10:35;26.60;71.50
74368;DHT22;64991;41.090;-8.118;2023-08-31T19:15:40;26.70;71.40
74368;DHT22;64991;41.090;-8.118;2023-08-31T19:20:44;26.70;71.50
74368;DHT22;64991;41.090;-8.118;2023-08-31T19:25:47;26.70;71.70
74368;DHT22;64991;41.090;-8.118;2023-08-31T19:30:52;26.70;71.70
74368;DHT22;64991;41.090;-8.118;2023-08-31T19:35:56;26.70;71.60
74368;DHT22;64991;41.090;-8.118;2023-08-31T19:41:00;26.70;71.80
74368;DHT22;64991;41.090;-8.118;2023-08-31T19:46:09;26.60;71.80
74368;DHT22;64991;41.090;-8.118;2023-08-31T19:51:13;26.70;71.90
74368;DHT22;64991;41.090;-8.118;2023-08-31T19:56:17;26.70;72.00
74368;DHT22;64991;41.090;-8.118;2023-08-31T20:01:22;26.70;72.00
74368;DHT22;64991;41.090;-8.118;2023-08-31T20:06:26;26.70;72.10
74368;DHT22;64991;41.090;-8.118;2023-08-31T20:11:29;26.70;72.40
74368;DHT22;64991;41.090;-8.118;2023-08-31T20:16:34;26.80;72.00
74368;DHT22;64991;41.090;-8.118;2023-08-31T20:21:38;26.70;71.90
74368;DHT22;64991;41.090;-8.118;2023-08-31T20:26:42;26.70;72.30
74368;DHT22;64991;41.090;-8.118;2023-08-31T20:31:47;26.70;72.00
74368;DHT22;64991;41.090;-8.118;2023-08-31T20:36:51;26.70;72.20
74368;DHT22;64991;41.090;-8.118;2023-08-31T20:41:57;26.70;72.00
74368;DHT22;64991;41.090;-8.118;2023-08-31T20:47:03;26.70;72.00
74368;DHT22;64991;41.090;-8.118;2023-08-31T20:52:08;26.70;72.20
74368;DHT22;64991;41.090;-8.118;2023-08-31T20:57:12;26.70;72.20
74368;DHT22;64991;41.090;-8.118;2023-08-31T21:02:17;26.70;72.10
74368;DHT22;64991;41.090;-8.118;2023-08-31T21:07:21;26.70;72.20
74368;DHT22;64991;41.090;-8.118;2023-08-31T21:12:24;26.60;72.40
74368;DHT22;64991;41.090;-8.118;2023-08-31T21:17:29;26.70;72.20
74368;DHT22;64991;41.090;-8.118;2023-08-31T21:22:33;26.70;72.20
74368;DHT22;64991;41.090;-8.118;2023-08-31T21:27:37;26.70;72.20
74368;DHT22;64991;41.090;-8.118;2023-08-31T21:32:42;26.70;72.20
74368;DHT22;64991;41.090;-8.118;2023-08-31T21:37:45;26.70;72.30
74368;DHT22;64991;41.090;-8.118;2023-08-31T21:42:51;26.70;72.20
74368;DHT22;64991;41.090;-8.118;2023-08-31T21:47:56;26.70;72.30
74368;DHT22;64991;41.090;-8.118;2023-08-31T21:52:59;26.70;72.30
74368;DHT22;64991;41.090;-8.118;2023-08-31T21:58:03;26.80;72.10
74368;DHT22;64991;41.090;-8.118;2023-08-31T22:03:08;26.70;72.40
74368;DHT22;64991;41.090;-8.118;2023-08-31T22:08:12;26.60;72.20
74368;DHT22;64991;41.090;-8.118;2023-08-31T22:13:16;26.70;72.30
74368;DHT22;64991;41.090;-8.118;2023-08-31T22:18:21;26.70;72.30
74368;DHT22;64991;41.090;-8.118;2023-08-31T22:23:24;26.70;72.30
74368;DHT22;64991;41.090;-8.118;2023-08-31T22:28:30;26.70;72.20
74368;DHT22;64991;41.090;-8.118;2023-08-31T22:33:35;26.60;72.40
74368;DHT22;64991;41.090;-8.118;2023-08-31T22:38:39;26.70;72.20
74368;DHT22;64991;41.090;-8.118;2023-08-31T22:43:42;26.70;72.30
74368;DHT22;64991;41.090;-8.118;2023-08-31T22:48:47;26.70;72.20
74368;DHT22;64991;41.090;-8.118;2023-08-31T22:53:51;26.70;72.40
74368;DHT22;64991;41.090;-8.118;2023-08-31T22:58:54;26.70;72.40
74368;DHT22;64991;41.090;-8.118;2023-08-31T23:03:59;26.70;72.40
74368;DHT22;64991;41.090;-8.118;2023-08-31T23:09:03;26.70;72.10
74368;DHT22;64991;41.090;-8.118;2023-08-31T23:14:07;26.70;72.30
74368;DHT22;64991;41.090;-8.118;2023-08-31T23:19:12;26.70;72.30
74368;DHT22;64991;41.090;-8.118;2023-08-31T23:24:16;26.70;72.30
74368;DHT22;64991;41.090;-8.118;2023-08-31T23:29:20;26.70;72.20
74368;DHT22;64991;41.090;-8.118;2023-08-31T23:34:24;26.60;72.40
74368;DHT22;64991;41.090;-8.118;2023-08-31T23:39:28;26.70;72.00
74368;DHT22;64991;41.090;-8.118;2023-08-31T23:44:32;26.70;72.40
74368;DHT22;64991;41.090;-8.118;2023-08-31T23:49:37;26.70;72.20
74368;DHT22;64991;41.090;-8.118;2023-08-31T23:54:40;26.70;72.10
74368;DHT22;64991;41.090;-8.118;2023-08-31T23:59:45;26.60;72.20
